createdAt,value
2024-04-04T00:01:32.070Z,8.67
2024-04-04T00:03:59.221Z,8.63
2024-04-04T00:06:26.368Z,8.57
2024-04-04T00:08:53.612Z,8.50
2024-04-04T00:11:20.758Z,8.48
2024-04-04T00:13:47.926Z,8.47
2024-04-04T00:16:15.577Z,8.44
2024-04-04T00:18:43.643Z,8.42
2024-04-04T00:21:10.786Z,8.40
2024-04-04T00:23:37.941Z,8.36
2024-04-04T00:26:05.609Z,8.33
2024-04-04T00:28:33.771Z,8.31
2024-04-04T00:31:01.131Z,8.28
2024-04-04T00:33:28.889Z,8.23
2024-04-04T00:35:56.037Z,8.17
2024-04-04T00:38:23.597Z,8.12
2024-04-04T00:40:50.642Z,8.01
2024-04-04T00:43:17.801Z,7.92
2024-04-04T00:45:44.836Z,7.87
2024-04-04T00:48:12.193Z,7.84
2024-04-04T00:50:39.960Z,7.85
2024-04-04T00:53:07.206Z,7.86
2024-04-04T00:55:34.252Z,7.87
2024-04-04T00:58:01.397Z,7.84
2024-04-04T01:00:30.389Z,7.81
2024-04-04T01:02:57.539Z,7.76
2024-04-04T01:05:24.585Z,7.74
2024-04-04T01:07:51.836Z,7.71
2024-04-04T01:10:20.454Z,7.68
2024-04-04T01:12:47.695Z,7.62
2024-04-04T01:15:14.919Z,7.55
2024-04-04T01:17:41.968Z,7.48
2024-04-04T01:20:09.425Z,7.40
2024-04-04T01:22:36.573Z,7.33
2024-04-04T01:25:03.839Z,7.21
2024-04-04T01:27:31.076Z,7.13
2024-04-04T01:29:58.324Z,7.10
2024-04-04T01:32:25.375Z,7.09
2024-04-04T01:34:52.417Z,7.07
2024-04-04T01:37:19.568Z,7.04
2024-04-04T01:39:46.614Z,7.02
2024-04-04T01:42:13.659Z,7.03
2024-04-04T01:44:40.717Z,7.02
2024-04-04T01:47:07.755Z,7.01
2024-04-04T01:49:34.802Z,7.00
2024-04-04T01:52:01.846Z,7.00
2024-04-04T01:54:29.607Z,6.97
2024-04-04T01:56:56.660Z,6.94
2024-04-04T01:59:23.701Z,6.90
2024-04-04T02:01:50.756Z,6.87
2024-04-04T02:04:17.791Z,6.84
2024-04-04T02:06:44.845Z,6.80
2024-04-04T02:09:11.986Z,6.77
2024-04-04T02:11:39.033Z,6.74
2024-04-04T02:14:06.708Z,6.72
2024-04-04T02:16:33.845Z,6.73
2024-04-04T02:19:01.089Z,6.72
2024-04-04T02:21:28.349Z,6.70
2024-04-04T02:23:55.397Z,6.67
2024-04-04T02:26:22.543Z,6.64
2024-04-04T02:28:50.201Z,6.59
2024-04-04T02:31:17.247Z,6.53
2024-04-04T02:33:44.392Z,6.46
2024-04-04T02:36:11.542Z,6.38
2024-04-04T02:38:38.696Z,6.33
2024-04-04T02:41:05.840Z,6.28
2024-04-04T02:43:33.100Z,6.22
2024-04-04T02:46:04.060Z,6.19
2024-04-04T02:48:31.284Z,6.16
2024-04-04T02:50:58.739Z,6.13
2024-04-04T02:53:26.192Z,6.07
2024-04-04T02:55:56.840Z,5.99
2024-04-04T02:58:24.581Z,5.91
2024-04-04T03:00:52.044Z,5.86
2024-04-04T03:03:19.187Z,5.82
2024-04-04T03:05:46.980Z,5.80
2024-04-04T03:08:17.078Z,5.77
2024-04-04T03:10:44.321Z,5.75
2024-04-04T03:13:11.476Z,5.75
2024-04-04T03:15:38.829Z,5.74
2024-04-04T03:18:06.277Z,5.70
2024-04-04T03:20:33.528Z,5.69
2024-04-04T03:23:00.677Z,5.69
2024-04-04T03:25:27.724Z,5.69
2024-04-04T03:27:54.734Z,5.69
2024-04-04T03:30:22.733Z,5.69
2024-04-04T03:32:49.783Z,5.67
2024-04-04T03:35:16.837Z,5.66
2024-04-04T03:37:43.978Z,5.66
2024-04-04T03:40:11.332Z,5.68
2024-04-04T03:42:38.388Z,5.70
2024-04-04T03:45:06.037Z,5.73
2024-04-04T03:47:35.661Z,5.75
2024-04-04T03:50:03.611Z,5.76
2024-04-04T03:52:30.868Z,5.79
2024-04-04T03:54:58.890Z,5.81
2024-04-04T03:57:25.984Z,5.83
2024-04-04T03:59:54.775Z,5.84
2024-04-04T04:02:22.023Z,5.86
2024-04-04T04:04:49.164Z,5.88
2024-04-04T04:07:16.415Z,5.88
2024-04-04T04:09:43.470Z,5.90
2024-04-04T04:12:10.610Z,5.91
2024-04-04T04:14:37.868Z,5.92
2024-04-04T04:17:05.216Z,5.91
2024-04-04T04:19:32.266Z,5.90
2024-04-04T04:21:59.660Z,5.90
2024-04-04T04:24:26.868Z,5.92
2024-04-04T04:26:54.530Z,5.93
2024-04-04T04:29:21.574Z,5.95
2024-04-04T04:31:49.030Z,5.97
2024-04-04T04:34:16.074Z,6.00
2024-04-04T04:36:56.156Z,6.03
2024-04-04T04:39:23.400Z,6.03
2024-04-04T04:41:50.536Z,6.04
2024-04-04T04:44:17.569Z,6.03
2024-04-04T04:46:44.821Z,6.01
2024-04-04T04:49:12.487Z,6.01
2024-04-04T04:51:39.529Z,6.02
2024-04-04T04:54:06.883Z,6.04
2024-04-04T04:56:35.361Z,6.07
2024-04-04T04:59:02.489Z,6.11
2024-04-04T05:01:29.768Z,6.15
2024-04-04T05:03:56.977Z,6.20
2024-04-04T05:06:24.471Z,6.24
2024-04-04T05:08:52.232Z,6.27
2024-04-04T05:11:19.690Z,6.30
2024-04-04T05:13:46.838Z,6.32
2024-04-04T05:16:13.898Z,6.33
2024-04-04T05:18:40.926Z,6.35
2024-04-04T05:21:08.182Z,6.38
2024-04-04T05:23:35.364Z,6.41
2024-04-04T05:26:02.689Z,6.45
2024-04-04T05:28:31.470Z,6.48
2024-04-04T05:30:58.959Z,6.50
2024-04-04T05:33:26.284Z,6.54
2024-04-04T05:35:56.210Z,6.59
2024-04-04T05:38:23.346Z,6.64
2024-04-04T05:40:50.388Z,6.64
2024-04-04T05:43:17.432Z,6.60
2024-04-04T05:45:44.691Z,6.61
2024-04-04T05:48:11.830Z,6.64
2024-04-04T05:50:38.877Z,6.67
2024-04-04T05:53:06.230Z,6.70
2024-04-04T05:55:33.625Z,6.72
2024-04-04T05:58:00.656Z,6.76
2024-04-04T06:00:28.104Z,6.81
2024-04-04T06:02:55.244Z,6.87
2024-04-04T06:05:22.282Z,6.91
2024-04-04T06:07:49.331Z,6.97
2024-04-04T06:10:16.480Z,7.01
2024-04-04T06:12:43.627Z,7.04
2024-04-04T06:15:10.772Z,7.07
2024-04-04T06:17:38.224Z,7.09
2024-04-04T06:20:05.797Z,7.10
2024-04-04T06:22:33.106Z,7.12
2024-04-04T06:25:00.356Z,7.16
2024-04-04T06:27:27.641Z,7.20
2024-04-04T06:29:54.891Z,7.25
2024-04-04T06:32:21.945Z,7.30
2024-04-04T06:34:49.097Z,7.36
2024-04-04T06:37:18.188Z,7.46
2024-04-04T06:39:53.371Z,7.57
2024-04-04T06:42:23.544Z,7.68
2024-04-04T06:44:53.791Z,7.78
2024-04-04T06:47:23.076Z,7.88
2024-04-04T06:49:51.583Z,7.99
2024-04-04T06:52:18.694Z,8.11
2024-04-04T06:54:45.832Z,8.18
2024-04-04T06:57:12.988Z,8.17
2024-04-04T06:59:41.168Z,8.20
2024-04-04T07:02:09.649Z,8.30
2024-04-04T07:04:37.105Z,8.38
2024-04-04T07:07:04.655Z,8.40
2024-04-04T07:09:31.805Z,8.41
2024-04-04T07:11:58.847Z,8.42
2024-04-04T07:14:27.741Z,8.46
2024-04-04T07:16:54.894Z,8.51
2024-04-04T07:19:22.031Z,8.59
2024-04-04T07:21:50.413Z,8.66
2024-04-04T07:24:17.661Z,8.66
2024-04-04T07:26:49.801Z,8.70
2024-04-04T07:29:17.089Z,8.75
2024-04-04T07:31:44.230Z,8.75
2024-04-04T07:34:11.264Z,8.75
2024-04-04T07:36:38.524Z,8.80
2024-04-04T07:39:05.936Z,8.84
2024-04-04T07:41:33.024Z,8.86
2024-04-04T07:44:00.796Z,8.92
2024-04-04T07:46:27.941Z,8.99
2024-04-04T07:48:55.195Z,9.04
2024-04-04T07:51:22.757Z,9.09
2024-04-04T07:53:50.314Z,9.18
2024-04-04T07:56:17.669Z,9.32
2024-04-04T07:58:46.167Z,9.43
2024-04-04T08:01:13.700Z,9.55
2024-04-04T08:03:41.054Z,9.69
2024-04-04T08:06:08.305Z,9.81
2024-04-04T08:08:35.554Z,9.92
2024-04-04T08:11:02.804Z,9.97
2024-04-04T08:13:30.158Z,9.96
2024-04-04T08:15:57.268Z,9.90
2024-04-04T08:18:25.777Z,9.82
2024-04-04T08:20:53.495Z,9.73
2024-04-04T08:23:21.315Z,9.63
2024-04-04T08:25:55.034Z,9.51
2024-04-04T08:28:22.267Z,9.37
2024-04-04T08:30:58.736Z,9.28
2024-04-04T08:33:26.009Z,9.12
2024-04-04T08:35:53.544Z,9.11
2024-04-04T08:38:20.946Z,9.24
2024-04-04T08:40:50.926Z,9.36
2024-04-04T08:43:18.027Z,9.41
2024-04-04T08:45:48.572Z,9.44
2024-04-04T08:48:16.163Z,9.49
2024-04-04T08:50:50.065Z,9.54
2024-04-04T08:53:20.260Z,9.58
2024-04-04T08:55:47.630Z,9.74
2024-04-04T08:58:14.979Z,9.89
2024-04-04T09:00:43.051Z,10.04
2024-04-04T09:03:11.739Z,10.20
2024-04-04T09:05:49.636Z,10.36
2024-04-04T09:08:16.994Z,10.48
2024-04-04T09:10:46.722Z,10.49
2024-04-04T09:13:15.207Z,10.64
2024-04-04T09:15:42.548Z,10.84
2024-04-04T09:18:10.452Z,11.00
2024-04-04T09:20:38.165Z,11.04
2024-04-04T09:23:05.754Z,11.12
2024-04-04T09:25:32.871Z,11.20
2024-04-04T09:28:00.424Z,11.21
2024-04-04T09:30:34.404Z,11.17
2024-04-04T09:33:01.598Z,11.17
2024-04-04T09:35:28.946Z,11.21
2024-04-04T09:37:56.257Z,11.29
2024-04-04T09:40:23.456Z,11.37
2024-04-04T09:42:50.632Z,11.47
2024-04-04T09:45:18.044Z,11.54
2024-04-04T09:47:48.471Z,11.53
2024-04-04T09:50:19.862Z,11.37
2024-04-04T09:52:47.580Z,11.18
2024-04-04T09:55:16.502Z,11.04
2024-04-04T09:57:43.739Z,10.97
2024-04-04T10:00:20.461Z,10.88
2024-04-04T10:02:47.903Z,10.84
2024-04-04T10:05:21.501Z,10.93
2024-04-04T10:07:51.680Z,11.09
2024-04-04T10:10:20.885Z,11.21
2024-04-04T10:12:54.260Z,11.24
2024-04-04T10:15:22.542Z,11.28
2024-04-04T10:17:50.197Z,11.26
2024-04-04T10:20:18.484Z,11.20
2024-04-04T10:22:46.394Z,11.21
2024-04-04T10:25:14.282Z,11.32
2024-04-04T10:27:42.584Z,11.44
2024-04-04T10:30:10.141Z,11.57
2024-04-04T10:32:37.549Z,11.66
2024-04-04T10:35:05.462Z,11.78
2024-04-04T10:37:33.331Z,11.82
2024-04-04T10:40:00.528Z,11.88
2024-04-04T10:42:27.619Z,11.88
2024-04-04T10:44:55.390Z,11.88
2024-04-04T10:47:22.681Z,11.91
2024-04-04T10:49:49.744Z,11.92
2024-04-04T10:52:17.111Z,12.02
2024-04-04T10:54:44.392Z,12.17
2024-04-04T10:57:11.848Z,12.33
2024-04-04T10:59:39.503Z,12.47
2024-04-04T11:02:11.577Z,12.70
2024-04-04T11:04:39.040Z,13.01
2024-04-04T11:07:06.489Z,13.33
2024-04-04T11:09:33.627Z,13.55
2024-04-04T11:12:00.757Z,13.84
2024-04-04T11:14:28.190Z,14.29
2024-04-04T11:16:55.706Z,14.72
2024-04-04T11:19:26.017Z,15.06
2024-04-04T11:21:53.568Z,15.26
2024-04-04T11:24:21.332Z,15.27
2024-04-04T11:26:48.482Z,15.19
2024-04-04T11:29:16.244Z,15.09
2024-04-04T11:31:43.293Z,14.90
2024-04-04T11:34:10.453Z,14.73
2024-04-04T11:36:37.494Z,14.58
2024-04-04T11:39:04.593Z,14.35
2024-04-04T11:41:31.682Z,14.02
2024-04-04T11:43:58.847Z,13.69
2024-04-04T11:46:27.437Z,13.51
2024-04-04T11:48:55.827Z,13.36
2024-04-04T11:51:22.788Z,13.31
2024-04-04T11:53:49.777Z,13.38
2024-04-04T11:56:17.858Z,13.79
2024-04-04T11:58:44.736Z,14.31
2024-04-04T12:01:13.744Z,14.95
2024-04-04T12:03:40.846Z,15.95
2024-04-04T12:06:07.784Z,17.19
2024-04-04T12:08:34.766Z,18.32
2024-04-04T12:11:04.443Z,19.13
2024-04-04T12:13:31.829Z,19.77
2024-04-04T12:16:00.366Z,20.23
2024-04-04T12:18:46.155Z,20.85
2024-04-04T12:21:17.509Z,21.54
2024-04-04T12:23:52.987Z,22.03
2024-04-04T12:26:23.758Z,22.23
2024-04-04T12:28:54.436Z,22.27
2024-04-04T12:31:21.552Z,22.15
2024-04-04T12:33:48.499Z,21.88
2024-04-04T12:36:15.541Z,21.39
2024-04-04T12:38:42.383Z,21.05
2024-04-04T12:41:09.222Z,20.55
2024-04-04T12:43:36.166Z,19.77
2024-04-04T12:46:04.936Z,19.19
2024-04-04T12:48:32.537Z,18.82
2024-04-04T12:50:59.865Z,18.58
2024-04-04T12:53:27.006Z,18.35
2024-04-04T12:55:54.334Z,18.36
2024-04-04T12:58:21.211Z,18.71
2024-04-04T13:00:49.205Z,19.59
2024-04-04T13:03:16.897Z,20.30
2024-04-04T13:05:43.888Z,20.74
2024-04-04T13:08:10.832Z,20.82
2024-04-04T13:10:37.776Z,20.46
2024-04-04T13:13:06.066Z,20.02
2024-04-04T13:15:32.995Z,19.95
2024-04-04T13:17:59.880Z,20.37
2024-04-04T13:20:26.992Z,20.89
2024-04-04T13:22:53.936Z,21.12
2024-04-04T13:25:20.898Z,21.17
2024-04-04T13:27:48.024Z,21.24
2024-04-04T13:30:14.821Z,21.68
2024-04-04T13:32:41.811Z,22.26
2024-04-04T13:35:08.754Z,22.75
2024-04-04T13:37:35.750Z,23.21
2024-04-04T13:40:04.381Z,23.61
2024-04-04T13:42:31.836Z,23.92
2024-04-04T13:44:58.780Z,24.05
2024-04-04T13:47:27.156Z,23.86
2024-04-04T13:49:53.944Z,23.41
2024-04-04T13:52:20.926Z,23.15
2024-04-04T13:54:48.106Z,22.96
2024-04-04T13:57:15.245Z,22.78
2024-04-04T13:59:42.182Z,22.46
2024-04-04T14:02:10.150Z,21.89
2024-04-04T14:04:37.343Z,21.24
2024-04-04T14:07:09.727Z,20.63
2024-04-04T14:09:38.590Z,20.06
2024-04-04T14:12:06.497Z,19.68
2024-04-04T14:14:33.472Z,19.33
2024-04-04T14:17:02.513Z,18.97
2024-04-04T14:19:29.815Z,18.62
2024-04-04T14:21:58.130Z,18.41
2024-04-04T14:24:25.175Z,18.29
2024-04-04T14:26:52.181Z,18.10
2024-04-04T14:29:19.210Z,17.85
2024-04-04T14:31:47.647Z,17.56
2024-04-04T14:34:14.714Z,17.34
2024-04-04T14:36:42.009Z,17.16
2024-04-04T14:39:09.262Z,17.02
2024-04-04T14:41:36.982Z,16.88
2024-04-04T14:44:04.130Z,16.71
2024-04-04T14:46:31.432Z,16.58
2024-04-04T14:48:59.329Z,16.48
2024-04-04T14:51:26.332Z,16.37
2024-04-04T14:53:53.689Z,16.27
2024-04-04T14:56:20.536Z,16.19
2024-04-04T14:58:47.895Z,16.11
2024-04-04T15:01:14.990Z,16.04
2024-04-04T15:03:42.398Z,16.05
2024-04-04T15:06:09.916Z,16.04
2024-04-04T15:08:37.483Z,15.95
2024-04-04T15:11:05.888Z,15.85
2024-04-04T15:13:32.662Z,15.80
2024-04-04T15:15:59.575Z,15.76
2024-04-04T15:18:26.507Z,15.75
2024-04-04T15:20:53.452Z,15.80
2024-04-04T15:23:20.500Z,15.97
2024-04-04T15:25:47.646Z,16.07
2024-04-04T15:28:14.829Z,16.16
2024-04-04T15:30:43.241Z,16.26
2024-04-04T15:33:10.533Z,16.29
2024-04-04T15:35:39.936Z,16.22
2024-04-04T15:38:06.870Z,16.10
2024-04-04T15:40:33.922Z,15.96
2024-04-04T15:43:03.975Z,15.80
2024-04-04T15:45:32.820Z,15.63
2024-04-04T15:47:59.809Z,15.46
2024-04-04T15:50:26.915Z,15.28
2024-04-04T15:52:54.471Z,15.08
2024-04-04T15:55:21.773Z,14.89
2024-04-04T15:57:48.883Z,14.72
2024-04-04T16:00:16.023Z,14.56
2024-04-04T16:02:44.215Z,14.44
2024-04-04T16:05:11.968Z,14.32
2024-04-04T16:07:38.903Z,14.22
2024-04-04T16:10:06.149Z,14.12
2024-04-04T16:12:33.196Z,14.04
2024-04-04T16:15:00.241Z,13.97
2024-04-04T16:17:27.558Z,13.89
2024-04-04T16:19:54.544Z,13.82
2024-04-04T16:22:21.492Z,13.75
2024-04-04T16:24:48.429Z,13.69
2024-04-04T16:27:15.373Z,13.63
2024-04-04T16:29:42.319Z,13.58
2024-04-04T16:32:09.469Z,13.52
2024-04-04T16:34:38.047Z,13.46
2024-04-04T16:37:05.115Z,13.40
2024-04-04T16:39:32.042Z,13.35
2024-04-04T16:42:00.009Z,13.29
2024-04-04T16:44:26.963Z,13.23
2024-04-04T16:46:54.302Z,13.16
2024-04-04T16:49:21.370Z,13.09
2024-04-04T16:51:48.713Z,13.04
2024-04-04T16:54:15.645Z,12.98
2024-04-04T16:56:42.837Z,12.93
2024-04-04T16:59:12.716Z,12.89
2024-04-04T17:01:40.061Z,12.86
2024-04-04T17:04:07.007Z,12.81
2024-04-04T17:06:34.052Z,12.75
2024-04-04T17:09:00.995Z,12.67
2024-04-04T17:11:28.202Z,12.59
2024-04-04T17:13:57.658Z,12.51
2024-04-04T17:16:24.615Z,12.38
2024-04-04T17:18:52.152Z,12.21
2024-04-04T17:21:19.299Z,12.08
2024-04-04T17:23:46.345Z,11.99
2024-04-04T17:26:15.142Z,11.90
2024-04-04T17:28:42.384Z,11.83
2024-04-04T17:31:09.430Z,11.75
2024-04-04T17:33:36.690Z,11.68
2024-04-04T17:36:03.740Z,11.57
2024-04-04T17:38:30.877Z,11.42
2024-04-04T17:40:59.044Z,11.28
2024-04-04T17:43:26.848Z,11.15
2024-04-04T17:45:53.866Z,11.07
2024-04-04T17:48:21.229Z,11.03
2024-04-04T17:50:48.271Z,11.00
2024-04-04T17:53:18.371Z,10.99
2024-04-04T17:55:46.870Z,10.95
2024-04-04T17:58:14.013Z,10.89
2024-04-04T18:00:41.079Z,10.82
2024-04-04T18:03:08.811Z,10.76
2024-04-04T18:05:36.265Z,10.74
2024-04-04T18:08:04.335Z,10.76
2024-04-04T18:10:33.853Z,10.80
2024-04-04T18:13:04.474Z,10.83
2024-04-04T18:15:31.516Z,10.85
2024-04-04T18:17:58.566Z,10.81
2024-04-04T18:20:26.578Z,10.74
2024-04-04T18:22:53.475Z,10.65
2024-04-04T18:25:20.569Z,10.55
2024-04-04T18:27:47.512Z,10.48
2024-04-04T18:30:16.361Z,10.46
2024-04-04T18:32:43.502Z,10.48
2024-04-04T18:35:10.552Z,10.52
2024-04-04T18:37:37.570Z,10.58
2024-04-04T18:40:06.587Z,10.60
2024-04-04T18:42:33.736Z,10.58
2024-04-04T18:45:02.531Z,10.57
2024-04-04T18:47:30.292Z,10.55
2024-04-04T18:50:02.395Z,10.54
2024-04-04T18:53:01.998Z,10.51
2024-04-04T18:55:36.498Z,10.49
2024-04-04T18:58:11.777Z,10.50
2024-04-04T19:00:39.291Z,10.52
2024-04-04T19:03:06.836Z,10.54
2024-04-04T19:05:33.797Z,10.57
2024-04-04T19:08:00.833Z,10.57
2024-04-04T19:10:29.395Z,10.57
2024-04-04T19:12:56.580Z,10.57
2024-04-04T19:15:23.705Z,10.51
2024-04-04T19:17:50.548Z,10.44
2024-04-04T19:20:21.610Z,10.37
2024-04-04T19:22:51.306Z,10.31
2024-04-04T19:25:20.808Z,10.28
2024-04-04T19:27:47.743Z,10.28
2024-04-04T19:30:14.792Z,10.29
2024-04-04T19:32:41.840Z,10.30
2024-04-04T19:35:08.992Z,10.29
2024-04-04T19:37:35.931Z,10.29
2024-04-04T19:40:03.080Z,10.28
2024-04-04T19:42:33.872Z,10.26
2024-04-04T19:45:01.194Z,10.25
2024-04-04T19:47:28.216Z,10.23
2024-04-04T19:49:55.170Z,10.24
2024-04-04T19:52:22.503Z,10.26
2024-04-04T19:54:49.451Z,10.29
2024-04-04T19:57:16.395Z,10.31
2024-04-04T19:59:43.437Z,10.33
2024-04-04T20:02:10.326Z,10.35
2024-04-04T20:04:37.329Z,10.36
2024-04-04T20:07:04.373Z,10.36
2024-04-04T20:09:31.316Z,10.36
2024-04-04T20:11:58.362Z,10.36
2024-04-04T20:14:26.332Z,10.34
2024-04-04T20:16:53.276Z,10.32
2024-04-04T20:19:20.241Z,10.30
2024-04-04T20:21:47.173Z,10.29
2024-04-04T20:24:14.108Z,10.29
2024-04-04T20:26:41.253Z,10.30
2024-04-04T20:29:08.304Z,10.31
2024-04-04T20:31:37.497Z,10.31
2024-04-04T20:34:04.449Z,10.30
2024-04-04T20:36:31.591Z,10.30
2024-04-04T20:38:58.533Z,10.28
2024-04-04T20:41:25.477Z,10.27
2024-04-04T20:43:52.528Z,10.23
2024-04-04T20:46:20.093Z,10.22
2024-04-04T20:48:47.023Z,10.22
2024-04-04T20:51:13.969Z,10.22
2024-04-04T20:53:40.915Z,10.21
2024-04-04T20:56:07.960Z,10.19
2024-04-04T20:58:34.976Z,10.17
2024-04-04T21:01:01.957Z,10.13
2024-04-04T21:03:29.609Z,10.10
2024-04-04T21:05:56.554Z,10.09
2024-04-04T21:08:23.495Z,10.08
2024-04-04T21:10:50.441Z,10.05
2024-04-04T21:13:17.381Z,10.02
2024-04-04T21:15:47.411Z,10.00
2024-04-04T21:18:14.347Z,9.96
2024-04-04T21:20:42.746Z,9.90
2024-04-04T21:23:09.663Z,9.83
2024-04-04T21:25:36.576Z,9.78
2024-04-04T21:28:04.174Z,9.73
2024-04-04T21:30:32.040Z,9.69
2024-04-04T21:32:58.983Z,9.69
2024-04-04T21:35:25.920Z,9.64
2024-04-04T21:37:52.864Z,9.59
2024-04-04T21:40:20.022Z,9.50
2024-04-04T21:42:46.960Z,9.41
2024-04-04T21:45:13.807Z,9.34
2024-04-04T21:47:40.950Z,9.30
2024-04-04T21:50:07.999Z,9.26
2024-04-04T21:52:35.060Z,9.22
2024-04-04T21:55:02.115Z,9.18
2024-04-04T21:57:29.545Z,9.13
2024-04-04T21:59:57.007Z,9.09
2024-04-04T22:02:24.051Z,9.06
2024-04-04T22:04:51.507Z,9.03
2024-04-04T22:07:18.550Z,9.02
2024-04-04T22:09:45.493Z,8.98
2024-04-04T22:12:12.355Z,8.93
2024-04-04T22:14:39.793Z,8.89
2024-04-04T22:17:06.648Z,8.86
2024-04-04T22:19:33.801Z,8.84
2024-04-04T22:22:02.780Z,8.83
2024-04-04T22:24:29.820Z,8.83
2024-04-04T22:26:56.659Z,8.84
2024-04-04T22:29:23.500Z,8.87
2024-04-04T22:31:50.341Z,8.90
2024-04-04T22:34:17.185Z,8.93
2024-04-04T22:36:44.844Z,8.96
2024-04-04T22:39:14.548Z,8.98
2024-04-04T22:41:41.496Z,9.00
2024-04-04T22:44:08.342Z,9.01
2024-04-04T22:46:35.422Z,9.03
2024-04-04T22:49:02.425Z,9.04
2024-04-04T22:51:32.031Z,9.03
2024-04-04T22:53:58.980Z,9.00
2024-04-04T22:56:25.920Z,8.98
2024-04-04T22:58:53.586Z,8.96
2024-04-04T23:01:20.524Z,8.93
2024-04-04T23:03:50.336Z,8.91
2024-04-04T23:06:17.290Z,8.89
2024-04-04T23:08:44.223Z,8.85
2024-04-04T23:11:11.476Z,8.81
2024-04-04T23:13:38.625Z,8.78
2024-04-04T23:16:05.986Z,8.75
2024-04-04T23:18:33.329Z,8.72
2024-04-04T23:21:00.168Z,8.69
2024-04-04T23:23:27.114Z,8.65
2024-04-04T23:25:54.877Z,8.60
2024-04-04T23:28:21.823Z,8.54
2024-04-04T23:30:49.072Z,8.50
2024-04-04T23:33:15.917Z,8.45
2024-04-04T23:35:43.583Z,8.41
2024-04-04T23:38:10.554Z,8.35
2024-04-04T23:40:40.534Z,8.27
2024-04-04T23:43:07.999Z,8.19
2024-04-04T23:45:34.834Z,8.10
2024-04-04T23:48:01.781Z,8.03
2024-04-04T23:50:28.734Z,7.98
2024-04-04T23:52:55.663Z,7.93
2024-04-04T23:55:25.027Z,7.90
2024-04-04T23:57:52.108Z,7.88
